sensor_id;sensor_type;location;lat;lon;timestamp;temperature;humidity
2855;DHT22;1435;49.472;10.940;2023-04-24T00:00:30;13.60;99.90
2855;DHT22;1435;49.472;10.940;2023-04-24T00:05:33;13.50;99.90
2855;DHT22;1435;49.472;10.940;2023-04-24T00:10:36;13.50;99.90
2855;DHT22;1435;49.472;10.940;2023-04-24T00:15:37;13.50;99.90
2855;DHT22;1435;49.472;10.940;2023-04-24T00:20:40;13.40;99.90
2855;DHT22;1435;49.472;10.940;2023-04-24T00:25:44;13.40;99.90
2855;DHT22;1435;49.472;10.940;2023-04-24T00:30:45;13.30;99.90
2855;DHT22;1435;49.472;10.940;2023-04-24T00:35:48;13.30;99.90
2855;DHT22;1435;49.472;10.940;2023-04-24T00:40:50;13.30;99.90
2855;DHT22;1435;49.472;10.940;2023-04-24T00:45:51;13.20;99.90
2855;DHT22;1435;49.472;10.940;2023-04-24T00:50:55;13.30;99.90
2855;DHT22;1435;49.472;10.940;2023-04-24T00:55:57;13.30;99.90
2855;DHT22;1435;49.472;10.940;2023-04-24T01:01:00;13.30;99.90
2855;DHT22;1435;49.472;10.940;2023-04-24T01:06:05;13.20;99.90
2855;DHT22;1435;49.472;10.940;2023-04-24T01:11:07;13.20;99.90
2855;DHT22;1435;49.472;10.940;2023-04-24T01:16:09;13.20;99.90
2855;DHT22;1435;49.472;10.940;2023-04-24T01:21:13;13.20;99.90
2855;DHT22;1435;49.472;10.940;2023-04-24T01:26:18;13.20;99.90
2855;DHT22;1435;49.472;10.940;2023-04-24T01:31:21;13.10;99.90
2855;DHT22;1435;49.472;10.940;2023-04-24T01:36:24;13.10;99.90
2855;DHT22;1435;49.472;10.940;2023-04-24T01:41:29;13.10;99.90
2855;DHT22;1435;49.472;10.940;2023-04-24T01:46:31;13.10;99.90
2855;DHT22;1435;49.472;10.940;2023-04-24T01:51:35;13.10;99.90
2855;DHT22;1435;49.472;10.940;2023-04-24T01:56:40;13.10;99.90
2855;DHT22;1435;49.472;10.940;2023-04-24T02:01:42;13.00;99.90
2855;DHT22;1435;49.472;10.940;2023-04-24T02:06:43;12.90;99.90
2855;DHT22;1435;49.472;10.940;2023-04-24T02:11:47;12.90;99.90
2855;DHT22;1435;49.472;10.940;2023-04-24T02:16:48;12.90;99.90
2855;DHT22;1435;49.472;10.940;2023-04-24T02:21:50;12.90;99.90
2855;DHT22;1435;49.472;10.940;2023-04-24T02:26:53;12.90;99.90
2855;DHT22;1435;49.472;10.940;2023-04-24T02:31:55;12.80;99.90
2855;DHT22;1435;49.472;10.940;2023-04-24T02:36:56;12.80;99.90
2855;DHT22;1435;49.472;10.940;2023-04-24T02:41:59;12.80;99.90
2855;DHT22;1435;49.472;10.940;2023-04-24T02:47:02;12.70;99.90
2855;DHT22;1435;49.472;10.940;2023-04-24T02:52:03;12.70;99.90
2855;DHT22;1435;49.472;10.940;2023-04-24T02:57:06;12.70;99.90
2855;DHT22;1435;49.472;10.940;2023-04-24T03:02:08;12.60;99.90
2855;DHT22;1435;49.472;10.940;2023-04-24T03:07:10;12.60;99.90
2855;DHT22;1435;49.472;10.940;2023-04-24T03:12:13;12.60;99.90
2855;DHT22;1435;49.472;10.940;2023-04-24T03:17:14;12.60;99.90
2855;DHT22;1435;49.472;10.940;2023-04-24T03:22:16;12.50;99.90
2855;DHT22;1435;49.472;10.940;2023-04-24T03:27:19;12.40;99.90
2855;DHT22;1435;49.472;10.940;2023-04-24T03:32:21;12.50;99.90
2855;DHT22;1435;49.472;10.940;2023-04-24T03:37:23;12.40;99.90
2855;DHT22;1435;49.472;10.940;2023-04-24T03:42:26;12.40;99.90
2855;DHT22;1435;49.472;10.940;2023-04-24T03:47:28;12.30;99.90
2855;DHT22;1435;49.472;10.940;2023-04-24T03:52:29;12.30;99.90
2855;DHT22;1435;49.472;10.940;2023-04-24T03:57:32;12.30;99.90
2855;DHT22;1435;49.472;10.940;2023-04-24T04:02:34;12.30;99.90
2855;DHT22;1435;49.472;10.940;2023-04-24T04:07:36;12.20;99.90
2855;DHT22;1435;49.472;10.940;2023-04-24T04:12:39;12.20;99.90
2855;DHT22;1435;49.472;10.940;2023-04-24T04:17:40;12.20;99.90
2855;DHT22;1435;49.472;10.940;2023-04-24T04:22:42;12.20;99.90
2855;DHT22;1435;49.472;10.940;2023-04-24T04:27:45;12.20;99.90
2855;DHT22;1435;49.472;10.940;2023-04-24T04:32:48;12.10;99.90
2855;DHT22;1435;49.472;10.940;2023-04-24T04:37:49;12.10;99.90
2855;DHT22;1435;49.472;10.940;2023-04-24T04:42:53;12.10;99.90
2855;DHT22;1435;49.472;10.940;2023-04-24T04:47:54;12.10;99.90
2855;DHT22;1435;49.472;10.940;2023-04-24T04:52:57;12.10;99.90
2855;DHT22;1435;49.472;10.940;2023-04-24T04:58:00;12.10;99.90
2855;DHT22;1435;49.472;10.940;2023-04-24T05:03:01;12.10;99.90
2855;DHT22;1435;49.472;10.940;2023-04-24T05:08:03;12.10;99.90
2855;DHT22;1435;49.472;10.940;2023-04-24T05:13:06;12.10;99.90
2855;DHT22;1435;49.472;10.940;2023-04-24T05:18:08;12.10;99.90
2855;DHT22;1435;49.472;10.940;2023-04-24T05:23:10;12.10;99.90
2855;DHT22;1435;49.472;10.940;2023-04-24T05:28:13;12.10;99.90
2855;DHT22;1435;49.472;10.940;2023-04-24T05:33:15;12.10;99.90
2855;DHT22;1435;49.472;10.940;2023-04-24T05:38:17;12.10;99.90
2855;DHT22;1435;49.472;10.940;2023-04-24T05:43:21;12.10;99.90
2855;DHT22;1435;49.472;10.940;2023-04-24T05:48:23;12.10;99.90
2855;DHT22;1435;49.472;10.940;2023-04-24T05:53:24;12.20;99.90
2855;DHT22;1435;49.472;10.940;2023-04-24T05:58:27;12.20;99.90
2855;DHT22;1435;49.472;10.940;2023-04-24T06:03:29;12.30;99.90
2855;DHT22;1435;49.472;10.940;2023-04-24T06:08:31;12.30;99.90
2855;DHT22;1435;49.472;10.940;2023-04-24T06:13:34;12.30;99.90
2855;DHT22;1435;49.472;10.940;2023-04-24T06:18:36;12.30;99.90
2855;DHT22;1435;49.472;10.940;2023-04-24T06:23:37;12.40;99.90
2855;DHT22;1435;49.472;10.940;2023-04-24T06:28:40;12.20;99.90
2855;DHT22;1435;49.472;10.940;2023-04-24T06:33:42;12.10;99.90
2855;DHT22;1435;49.472;10.940;2023-04-24T06:38:44;11.80;99.90
2855;DHT22;1435;49.472;10.940;2023-04-24T06:43:48;11.80;99.90
2855;DHT22;1435;49.472;10.940;2023-04-24T06:48:50;11.90;99.90
2855;DHT22;1435;49.472;10.940;2023-04-24T06:53:52;12.00;99.90
2855;DHT22;1435;49.472;10.940;2023-04-24T06:58:55;11.90;99.90
2855;DHT22;1435;49.472;10.940;2023-04-24T07:03:57;11.70;99.90
2855;DHT22;1435;49.472;10.940;2023-04-24T07:08:59;11.80;99.90
2855;DHT22;1435;49.472;10.940;2023-04-24T07:14:03;11.90;99.90
2855;DHT22;1435;49.472;10.940;2023-04-24T07:19:05;11.80;99.90
2855;DHT22;1435;49.472;10.940;2023-04-24T07:24:07;11.80;99.90
2855;DHT22;1435;49.472;10.940;2023-04-24T07:29:12;11.70;99.90
2855;DHT22;1435;49.472;10.940;2023-04-24T07:34:14;11.80;99.90
2855;DHT22;1435;49.472;10.940;2023-04-24T07:39:16;11.80;99.90
2855;DHT22;1435;49.472;10.940;2023-04-24T07:44:19;11.80;99.90
2855;DHT22;1435;49.472;10.940;2023-04-24T07:49:20;11.80;99.90
2855;DHT22;1435;49.472;10.940;2023-04-24T07:54:22;11.80;99.90
2855;DHT22;1435;49.472;10.940;2023-04-24T07:59:25;11.90;99.90
2855;DHT22;1435;49.472;10.940;2023-04-24T08:04:27;12.10;99.90
2855;DHT22;1435;49.472;10.940;2023-04-24T08:09:28;12.10;99.90
2855;DHT22;1435;49.472;10.940;2023-04-24T08:14:31;12.20;99.90
2855;DHT22;1435;49.472;10.940;2023-04-24T08:19:33;12.10;99.90
2855;DHT22;1435;49.472;10.940;2023-04-24T08:24:35;12.10;99.90
2855;DHT22;1435;49.472;10.940;2023-04-24T08:29:38;12.20;99.90
2855;DHT22;1435;49.472;10.940;2023-04-24T08:34:40;12.20;99.90
2855;DHT22;1435;49.472;10.940;2023-04-24T08:39:41;12.20;99.90
2855;DHT22;1435;49.472;10.940;2023-04-24T08:44:44;12.30;99.90
2855;DHT22;1435;49.472;10.940;2023-04-24T08:49:48;12.20;99.90
2855;DHT22;1435;49.472;10.940;2023-04-24T08:54:51;12.20;99.90
2855;DHT22;1435;49.472;10.940;2023-04-24T08:59:55;12.20;99.90
2855;DHT22;1435;49.472;10.940;2023-04-24T09:04:58;12.30;99.90
2855;DHT22;1435;49.472;10.940;2023-04-24T09:10:01;12.20;99.90
2855;DHT22;1435;49.472;10.940;2023-04-24T09:15:07;12.30;99.90
2855;DHT22;1435;49.472;10.940;2023-04-24T09:20:09;12.40;99.90
2855;DHT22;1435;49.472;10.940;2023-04-24T09:25:11;12.50;99.90
2855;DHT22;1435;49.472;10.940;2023-04-24T09:30:21;12.50;99.90
2855;DHT22;1435;49.472;10.940;2023-04-24T09:35:23;12.40;99.90
2855;DHT22;1435;49.472;10.940;2023-04-24T09:40:25;12.50;99.90
2855;DHT22;1435;49.472;10.940;2023-04-24T09:45:34;12.60;99.90
2855;DHT22;1435;49.472;10.940;2023-04-24T09:50:36;12.70;99.90
2855;DHT22;1435;49.472;10.940;2023-04-24T09:55:39;12.90;99.90
2855;DHT22;1435;49.472;10.940;2023-04-24T10:00:45;12.90;99.90
2855;DHT22;1435;49.472;10.940;2023-04-24T10:05:47;13.00;99.90
2855;DHT22;1435;49.472;10.940;2023-04-24T10:10:49;13.10;99.90
2855;DHT22;1435;49.472;10.940;2023-04-24T10:15:52;13.30;99.90
2855;DHT22;1435;49.472;10.940;2023-04-24T10:20:54;13.40;99.90
2855;DHT22;1435;49.472;10.940;2023-04-24T10:25:56;13.40;99.90
2855;DHT22;1435;49.472;10.940;2023-04-24T10:31:00;13.40;99.90
2855;DHT22;1435;49.472;10.940;2023-04-24T10:36:02;13.30;99.90
2855;DHT22;1435;49.472;10.940;2023-04-24T10:41:08;13.20;99.90
2855;DHT22;1435;49.472;10.940;2023-04-24T10:46:20;12.80;99.90
2855;DHT22;1435;49.472;10.940;2023-04-24T10:51:22;12.50;99.90
2855;DHT22;1435;49.472;10.940;2023-04-24T10:56:24;12.50;99.90
2855;DHT22;1435;49.472;10.940;2023-04-24T11:01:29;12.20;99.90
2855;DHT22;1435;49.472;10.940;2023-04-24T11:06:32;12.20;99.90
2855;DHT22;1435;49.472;10.940;2023-04-24T11:11:36;12.30;99.90
2855;DHT22;1435;49.472;10.940;2023-04-24T11:16:47;12.20;99.90
2855;DHT22;1435;49.472;10.940;2023-04-24T11:21:58;12.40;99.90
2855;DHT22;1435;49.472;10.940;2023-04-24T11:27:06;12.50;99.90
2855;DHT22;1435;49.472;10.940;2023-04-24T11:32:23;12.70;99.90
2855;DHT22;1435;49.472;10.940;2023-04-24T11:37:27;12.80;99.90
2855;DHT22;1435;49.472;10.940;2023-04-24T11:42:33;12.90;99.90
2855;DHT22;1435;49.472;10.940;2023-04-24T11:47:36;12.80;99.90
2855;DHT22;1435;49.472;10.940;2023-04-24T11:52:40;12.70;99.90
2855;DHT22;1435;49.472;10.940;2023-04-24T11:57:43;12.80;99.90
2855;DHT22;1435;49.472;10.940;2023-04-24T12:02:47;12.80;99.90
2855;DHT22;1435;49.472;10.940;2023-04-24T12:07:49;12.90;99.90
2855;DHT22;1435;49.472;10.940;2023-04-24T12:12:51;13.00;99.90
2855;DHT22;1435;49.472;10.940;2023-04-24T12:17:55;12.80;99.90
2855;DHT22;1435;49.472;10.940;2023-04-24T12:22:59;13.00;99.90
2855;DHT22;1435;49.472;10.940;2023-04-24T12:28:09;13.10;99.90
2855;DHT22;1435;49.472;10.940;2023-04-24T12:33:17;13.10;99.90
2855;DHT22;1435;49.472;10.940;2023-04-24T12:38:22;13.00;99.90
2855;DHT22;1435;49.472;10.940;2023-04-24T12:43:24;13.10;99.90
2855;DHT22;1435;49.472;10.940;2023-04-24T12:48:27;13.00;99.90
2855;DHT22;1435;49.472;10.940;2023-04-24T12:53:29;12.80;99.90
2855;DHT22;1435;49.472;10.940;2023-04-24T12:58:31;12.90;99.90
2855;DHT22;1435;49.472;10.940;2023-04-24T13:03:34;13.10;99.90
2855;DHT22;1435;49.472;10.940;2023-04-24T13:08:36;13.30;99.90
2855;DHT22;1435;49.472;10.940;2023-04-24T13:13:38;13.30;99.90
2855;DHT22;1435;49.472;10.940;2023-04-24T13:18:41;13.20;99.90
2855;DHT22;1435;49.472;10.940;2023-04-24T13:23:43;13.30;99.90
2855;DHT22;1435;49.472;10.940;2023-04-24T13:28:44;13.10;99.90
2855;DHT22;1435;49.472;10.940;2023-04-24T13:33:47;13.10;99.90
2855;DHT22;1435;49.472;10.940;2023-04-24T13:38:49;13.10;99.90
2855;DHT22;1435;49.472;10.940;2023-04-24T13:43:51;12.90;99.90
2855;DHT22;1435;49.472;10.940;2023-04-24T13:48:54;12.80;99.90
2855;DHT22;1435;49.472;10.940;2023-04-24T13:53:55;12.50;99.90
2855;DHT22;1435;49.472;10.940;2023-04-24T13:58:57;12.70;99.90
2855;DHT22;1435;49.472;10.940;2023-04-24T14:04:00;12.70;99.90
2855;DHT22;1435;49.472;10.940;2023-04-24T14:09:02;12.80;99.90
2855;DHT22;1435;49.472;10.940;2023-04-24T14:14:04;13.00;99.90
2855;DHT22;1435;49.472;10.940;2023-04-24T14:19:07;13.00;99.90
2855;DHT22;1435;49.472;10.940;2023-04-24T14:24:09;12.90;99.90
2855;DHT22;1435;49.472;10.940;2023-04-24T14:29:11;13.20;99.90
2855;DHT22;1435;49.472;10.940;2023-04-24T14:34:14;13.00;99.90
2855;DHT22;1435;49.472;10.940;2023-04-24T14:39:16;12.90;99.90
2855;DHT22;1435;49.472;10.940;2023-04-24T14:44:18;13.10;99.90
2855;DHT22;1435;49.472;10.940;2023-04-24T14:49:21;13.10;99.90
2855;DHT22;1435;49.472;10.940;2023-04-24T14:54:22;13.10;99.90
2855;DHT22;1435;49.472;10.940;2023-04-24T14:59:25;13.40;99.90
2855;DHT22;1435;49.472;10.940;2023-04-24T15:04:29;13.60;99.90
2855;DHT22;1435;49.472;10.940;2023-04-24T15:09:31;13.70;99.90
2855;DHT22;1435;49.472;10.940;2023-04-24T15:14:33;13.60;99.90
2855;DHT22;1435;49.472;10.940;2023-04-24T15:19:36;13.60;99.90
2855;DHT22;1435;49.472;10.940;2023-04-24T15:24:38;13.70;99.90
2855;DHT22;1435;49.472;10.940;2023-04-24T15:29:39;13.60;99.90
2855;DHT22;1435;49.472;10.940;2023-04-24T15:34:42;13.80;99.90
2855;DHT22;1435;49.472;10.940;2023-04-24T15:39:44;13.70;99.90
2855;DHT22;1435;49.472;10.940;2023-04-24T15:44:47;13.60;99.90
2855;DHT22;1435;49.472;10.940;2023-04-24T15:49:51;13.50;99.90
2855;DHT22;1435;49.472;10.940;2023-04-24T15:54:53;13.20;99.90
2855;DHT22;1435;49.472;10.940;2023-04-24T15:59:55;13.20;99.90
2855;DHT22;1435;49.472;10.940;2023-04-24T16:04:58;12.90;99.90
2855;DHT22;1435;49.472;10.940;2023-04-24T16:10:00;13.00;99.90
2855;DHT22;1435;49.472;10.940;2023-04-24T16:15:03;12.90;99.90
2855;DHT22;1435;49.472;10.940;2023-04-24T16:20:07;13.00;99.90
2855;DHT22;1435;49.472;10.940;2023-04-24T16:25:09;12.90;99.90
2855;DHT22;1435;49.472;10.940;2023-04-24T16:30:11;13.00;99.90
2855;DHT22;1435;49.472;10.940;2023-04-24T16:35:15;13.00;99.90
2855;DHT22;1435;49.472;10.940;2023-04-24T16:40:17;13.20;99.90
2855;DHT22;1435;49.472;10.940;2023-04-24T16:45:19;13.50;99.90
2855;DHT22;1435;49.472;10.940;2023-04-24T16:50:22;13.60;99.90
2855;DHT22;1435;49.472;10.940;2023-04-24T16:55:24;13.70;99.90
2855;DHT22;1435;49.472;10.940;2023-04-24T17:00:26;13.50;99.90
2855;DHT22;1435;49.472;10.940;2023-04-24T17:05:29;13.70;99.90
2855;DHT22;1435;49.472;10.940;2023-04-24T17:10:31;13.80;99.90
2855;DHT22;1435;49.472;10.940;2023-04-24T17:15:32;13.60;99.90
2855;DHT22;1435;49.472;10.940;2023-04-24T17:20:36;13.40;99.90
2855;DHT22;1435;49.472;10.940;2023-04-24T17:25:37;13.10;99.90
2855;DHT22;1435;49.472;10.940;2023-04-24T17:30:39;13.30;99.90
2855;DHT22;1435;49.472;10.940;2023-04-24T17:35:42;13.30;99.90
2855;DHT22;1435;49.472;10.940;2023-04-24T17:40:44;13.50;99.90
2855;DHT22;1435;49.472;10.940;2023-04-24T17:45:47;13.60;99.90
2855;DHT22;1435;49.472;10.940;2023-04-24T17:50:50;13.60;99.90
2855;DHT22;1435;49.472;10.940;2023-04-24T17:55:52;13.40;99.90
2855;DHT22;1435;49.472;10.940;2023-04-24T18:00:57;13.40;99.90
2855;DHT22;1435;49.472;10.940;2023-04-24T18:06:00;13.20;99.90
2855;DHT22;1435;49.472;10.940;2023-04-24T18:11:02;13.20;99.90
2855;DHT22;1435;49.472;10.940;2023-04-24T18:16:04;13.20;99.90
2855;DHT22;1435;49.472;10.940;2023-04-24T18:21:07;13.00;99.90
2855;DHT22;1435;49.472;10.940;2023-04-24T18:26:08;13.00;99.90
2855;DHT22;1435;49.472;10.940;2023-04-24T18:31:10;12.90;99.90
2855;DHT22;1435;49.472;10.940;2023-04-24T18:36:13;12.80;99.90
2855;DHT22;1435;49.472;10.940;2023-04-24T18:41:15;12.70;99.90
2855;DHT22;1435;49.472;10.940;2023-04-24T18:46:16;12.70;99.90
2855;DHT22;1435;49.472;10.940;2023-04-24T18:51:20;12.60;99.90
2855;DHT22;1435;49.472;10.940;2023-04-24T18:56:22;12.60;99.90
2855;DHT22;1435;49.472;10.940;2023-04-24T19:01:24;12.50;99.90
2855;DHT22;1435;49.472;10.940;2023-04-24T19:06:27;12.50;99.90
2855;DHT22;1435;49.472;10.940;2023-04-24T19:11:28;12.30;99.90
2855;DHT22;1435;49.472;10.940;2023-04-24T19:16:30;12.30;99.90
2855;DHT22;1435;49.472;10.940;2023-04-24T19:21:33;12.20;99.90
2855;DHT22;1435;49.472;10.940;2023-04-24T19:26:35;12.20;99.90
2855;DHT22;1435;49.472;10.940;2023-04-24T19:31:37;12.10;99.90
2855;DHT22;1435;49.472;10.940;2023-04-24T19:36:40;12.10;99.90
2855;DHT22;1435;49.472;10.940;2023-04-24T19:41:42;12.00;99.90
2855;DHT22;1435;49.472;10.940;2023-04-24T19:46:45;12.00;99.90
2855;DHT22;1435;49.472;10.940;2023-04-24T19:51:48;11.90;99.90
2855;DHT22;1435;49.472;10.940;2023-04-24T19:56:50;11.80;99.90
2855;DHT22;1435;49.472;10.940;2023-04-24T20:01:52;11.70;99.90
2855;DHT22;1435;49.472;10.940;2023-04-24T20:06:55;11.70;99.90
2855;DHT22;1435;49.472;10.940;2023-04-24T20:11:57;11.60;99.90
2855;DHT22;1435;49.472;10.940;2023-04-24T20:16:59;11.60;99.90
2855;DHT22;1435;49.472;10.940;2023-04-24T20:22:02;11.50;99.90
2855;DHT22;1435;49.472;10.940;2023-04-24T20:27:04;11.40;99.90
2855;DHT22;1435;49.472;10.940;2023-04-24T20:32:05;11.30;99.90
2855;DHT22;1435;49.472;10.940;2023-04-24T20:37:09;11.30;99.90
2855;DHT22;1435;49.472;10.940;2023-04-24T20:42:10;11.20;99.90
2855;DHT22;1435;49.472;10.940;2023-04-24T20:47:12;11.20;99.90
2855;DHT22;1435;49.472;10.940;2023-04-24T20:52:16;11.10;99.90
2855;DHT22;1435;49.472;10.940;2023-04-24T20:57:17;11.10;99.90
2855;DHT22;1435;49.472;10.940;2023-04-24T21:02:19;10.80;99.90
2855;DHT22;1435;49.472;10.940;2023-04-24T21:07:22;10.80;99.90
2855;DHT22;1435;49.472;10.940;2023-04-24T21:12:24;10.80;99.90
2855;DHT22;1435;49.472;10.940;2023-04-24T21:17:26;10.90;99.90
2855;DHT22;1435;49.472;10.940;2023-04-24T21:22:29;10.70;99.90
2855;DHT22;1435;49.472;10.940;2023-04-24T21:27:31;10.70;99.90
2855;DHT22;1435;49.472;10.940;2023-04-24T21:32:33;10.80;99.90
2855;DHT22;1435;49.472;10.940;2023-04-24T21:37:36;10.80;99.90
2855;DHT22;1435;49.472;10.940;2023-04-24T21:42:39;10.80;99.90
2855;DHT22;1435;49.472;10.940;2023-04-24T21:47:40;10.70;99.90
2855;DHT22;1435;49.472;10.940;2023-04-24T21:52:44;10.70;99.90
2855;DHT22;1435;49.472;10.940;2023-04-24T21:57:45;10.70;99.90
2855;DHT22;1435;49.472;10.940;2023-04-24T22:02:48;10.70;99.90
2855;DHT22;1435;49.472;10.940;2023-04-24T22:07:51;10.70;99.90
2855;DHT22;1435;49.472;10.940;2023-04-24T22:12:53;10.70;99.90
2855;DHT22;1435;49.472;10.940;2023-04-24T22:17:55;10.70;99.90
2855;DHT22;1435;49.472;10.940;2023-04-24T22:22:58;10.70;99.90
2855;DHT22;1435;49.472;10.940;2023-04-24T22:28:00;10.60;99.90
2855;DHT22;1435;49.472;10.940;2023-04-24T22:33:03;10.60;99.90
2855;DHT22;1435;49.472;10.940;2023-04-24T22:38:06;10.70;99.90
2855;DHT22;1435;49.472;10.940;2023-04-24T22:43:08;10.60;99.90
2855;DHT22;1435;49.472;10.940;2023-04-24T22:48:09;10.50;99.90
2855;DHT22;1435;49.472;10.940;2023-04-24T22:53:12;10.60;99.90
2855;DHT22;1435;49.472;10.940;2023-04-24T22:58:14;10.50;99.90
2855;DHT22;1435;49.472;10.940;2023-04-24T23:03:16;10.60;99.90
2855;DHT22;1435;49.472;10.940;2023-04-24T23:08:19;10.60;99.90
2855;DHT22;1435;49.472;10.940;2023-04-24T23:13:20;10.50;99.90
2855;DHT22;1435;49.472;10.940;2023-04-24T23:18:22;10.60;99.90
2855;DHT22;1435;49.472;10.940;2023-04-24T23:23:25;10.60;99.90
2855;DHT22;1435;49.472;10.940;2023-04-24T23:28:27;10.60;99.90
2855;DHT22;1435;49.472;10.940;2023-04-24T23:33:29;10.60;99.90
2855;DHT22;1435;49.472;10.940;2023-04-24T23:38:32;10.50;99.90
2855;DHT22;1435;49.472;10.940;2023-04-24T23:43:34;10.50;99.90
2855;DHT22;1435;49.472;10.940;2023-04-24T23:48:36;10.60;99.90
2855;DHT22;1435;49.472;10.940;2023-04-24T23:53:39;10.50;99.90
2855;DHT22;1435;49.472;10.940;2023-04-24T23:58:40;10.60;99.90
